Time;durP1;ratioP1;P1;durP2;ratioP2;P2;SDS_P1;SDS_P2;PMS_P1;PMS_P2;Temp;Humidity;BMP_temperature;BMP_pressure;BME280_temperature;BME280_humidity;BME280_pressure;Samples;Min_cycle;Max_cycle;Signal;HPM_P1;HPM_P2
2022/11/05 00:09:28;;;;;;;17.95;12.50;;;24.40;51.30;;;;;;6173360;28;83287;-63
2022/11/05 00:11:03;;;;;;;19.40;12.52;;;24.30;51.20;;;;;;6143558;28;87295;-63
2022/11/05 00:17:22;;;;;;;18.30;12.43;;;24.30;51.00;;;;;;6174935;28;85100;-66
2022/11/05 00:20:23;;;;;;;20.00;13.00;;;24.30;51.00;;;;;;6173311;28;82893;-67
2022/11/05 00:26:43;;;;;;;17.50;12.25;;;24.30;51.00;;;;;;6193687;28;83176;-67
2022/11/05 00:29:43;;;;;;;19.35;12.40;;;24.30;51.00;;;;;;6177839;28;84347;-65
2022/11/05 00:32:44;;;;;;;20.63;12.85;;;24.30;50.90;;;;;;6173731;28;83454;-67
2022/11/05 00:35:45;;;;;;;21.17;12.73;;;24.30;50.90;;;;;;6175401;28;83493;-57
2022/11/05 00:38:45;;;;;;;19.42;13.05;;;24.30;50.90;;;;;;6174313;28;82980;-57
2022/11/05 00:44:58;;;;;;;17.92;12.75;;;24.30;50.90;;;;;;6172508;28;83490;-58
2022/11/05 00:45:06;;;;;;;19.30;12.68;;;24.30;50.90;;;;;;6172018;28;84575;-58
2022/11/05 00:51:26;;;;;;;19.52;12.52;;;24.30;50.90;;;;;;6197089;28;88490;-64
2022/11/05 00:54:26;;;;;;;20.02;12.38;;;24.30;50.90;;;;;;6197272;28;83219;-65
2022/11/05 00:57:27;;;;;;;18.88;12.43;;;24.30;51.00;;;;;;6189291;28;83821;-63
2022/11/05 01:00:27;;;;;;;18.00;12.05;;;24.30;51.00;;;;;;6196384;28;85982;-64
2022/11/05 01:03:28;;;;;;;20.00;12.18;;;24.30;51.00;;;;;;6197906;28;83149;-65
2022/11/05 01:06:28;;;;;;;24.80;13.00;;;24.30;51.00;;;;;;6174059;28;82882;-65
2022/11/05 01:09:29;;;;;;;20.05;13.65;;;24.30;51.00;;;;;;6190795;28;86677;-65
2022/11/05 01:12:29;;;;;;;24.25;12.20;;;24.30;51.00;;;;;;6185538;28;83090;-62
2022/11/05 01:15:30;;;;;;;19.77;12.75;;;24.30;50.90;;;;;;6173438;28;85543;-62
2022/11/05 01:18:30;;;;;;;23.17;14.13;;;24.30;50.90;;;;;;6162729;28;83111;-62
2022/11/05 01:21:31;;;;;;;22.60;12.65;;;24.30;51.00;;;;;;6197027;28;84032;-62
2022/11/05 01:24:31;;;;;;;20.48;13.15;;;24.30;50.90;;;;;;6195619;28;83478;-62
2022/11/05 01:27:32;;;;;;;20.67;12.88;;;24.30;50.90;;;;;;6195686;28;82847;-63
2022/11/05 01:30:32;;;;;;;19.45;13.25;;;24.30;50.90;;;;;;6174160;28;84129;-63
2022/11/05 01:33:33;;;;;;;21.63;14.43;;;24.30;50.80;;;;;;6175093;28;83170;-64
2022/11/05 01:36:33;;;;;;;24.05;13.73;;;24.30;50.90;;;;;;6192428;28;83154;-63
2022/11/05 01:39:34;;;;;;;22.92;14.45;;;24.20;50.90;;;;;;6172412;28;83377;-63
2022/11/05 01:42:34;;;;;;;22.30;14.23;;;24.30;50.90;;;;;;6173003;28;83137;-62
2022/11/05 01:45:35;;;;;;;17.48;13.15;;;24.30;50.90;;;;;;6158540;28;83222;-62
2022/11/05 01:48:35;;;;;;;18.55;13.05;;;24.30;50.80;;;;;;6169477;28;83275;-65
2022/11/05 01:51:36;;;;;;;18.10;12.35;;;24.30;50.80;;;;;;6170570;28;90023;-65
2022/11/05 01:54:36;;;;;;;24.00;14.20;;;24.30;50.70;;;;;;6193620;28;83528;-63
2022/11/05 01:57:37;;;;;;;19.17;13.05;;;24.30;50.70;;;;;;6164848;28;84186;-64
2022/11/05 02:00:37;;;;;;;25.33;14.13;;;24.30;50.70;;;;;;6174296;28;83114;-63
2022/11/05 02:03:38;;;;;;;23.50;13.88;;;24.30;50.80;;;;;;6165412;28;83473;-64
2022/11/05 02:06:44;;;;;;;21.55;13.75;;;24.30;50.80;;;;;;6196688;28;83745;-64
2022/11/05 02:09:45;;;;;;;21.30;13.25;;;24.30;50.80;;;;;;6197669;28;83159;-64
2022/11/05 02:12:46;;;;;;;22.13;13.75;;;24.30;50.80;;;;;;6192662;28;83226;-65
2022/11/05 02:15:46;;;;;;;20.75;13.88;;;24.30;50.80;;;;;;6194177;28;83439;-64
2022/11/05 02:18:47;;;;;;;20.20;12.70;;;24.20;50.70;;;;;;6195792;28;83968;-62
2022/11/05 02:21:48;;;;;;;18.77;14.05;;;24.30;50.80;;;;;;6197848;28;82878;-64
2022/11/05 02:24:48;;;;;;;22.60;13.57;;;24.30;50.90;;;;;;6193546;28;83534;-64
2022/11/05 02:27:49;;;;;;;18.92;12.40;;;24.30;50.90;;;;;;6195963;28;82975;-64
2022/11/05 02:30:49;;;;;;;20.08;13.13;;;24.20;50.90;;;;;;6195434;28;83189;-64
2022/11/05 02:33:55;;;;;;;17.48;11.48;;;24.30;51.00;;;;;;6197863;28;83133;-63
2022/11/05 02:36:55;;;;;;;18.80;12.45;;;24.20;51.00;;;;;;6193802;28;82744;-63
2022/11/05 02:39:56;;;;;;;19.60;12.57;;;24.30;51.10;;;;;;6194586;28;88699;-63
2022/11/05 02:42:57;;;;;;;19.35;12.70;;;24.20;51.00;;;;;;6194929;28;84438;-64
2022/11/05 02:45:58;;;;;;;19.60;12.88;;;24.20;51.10;;;;;;6195898;28;83796;-65
2022/11/05 02:48:58;;;;;;;19.25;12.15;;;24.20;51.10;;;;;;6186662;28;83660;-64
2022/11/05 02:51:59;;;;;;;18.35;12.02;;;24.30;51.20;;;;;;6212422;28;83236;-62
2022/11/05 02:54:59;;;;;;;18.23;12.98;;;24.30;51.10;;;;;;6191614;28;83263;-62
2022/11/05 02:58:00;;;;;;;20.02;12.68;;;24.30;51.10;;;;;;6187572;28;84524;-63
2022/11/05 03:01:05;;;;;;;20.55;12.80;;;24.30;51.30;;;;;;6195998;28;83301;-63
2022/11/05 03:04:06;;;;;;;21.40;12.53;;;24.30;51.20;;;;;;6196282;28;83892;-64
2022/11/05 03:07:06;;;;;;;22.05;12.73;;;24.20;51.10;;;;;;6191435;28;83107;-62
2022/11/05 03:10:07;;;;;;;19.42;13.02;;;24.30;51.20;;;;;;6198100;28;83437;-63
2022/11/05 03:13:07;;;;;;;16.90;11.85;;;24.30;51.30;;;;;;6206218;28;83710;-62
2022/11/05 03:16:08;;;;;;;16.90;11.98;;;24.30;51.20;;;;;;6195041;28;83165;-62
2022/11/05 03:19:08;;;;;;;17.10;11.50;;;24.30;51.30;;;;;;6193461;28;88069;-62
2022/11/05 03:22:09;;;;;;;15.98;10.98;;;24.30;51.30;;;;;;6198446;28;82703;-62
2022/11/05 03:25:09;;;;;;;18.48;10.77;;;24.30;51.40;;;;;;6193716;28;88519;-63
2022/11/05 03:28:10;;;;;;;14.82;9.90;;;24.30;51.40;;;;;;6211744;28;84910;-63
2022/11/05 03:31:10;;;;;;;11.07;9.13;;;24.30;51.40;;;;;;6213104;28;85933;-63
2022/11/05 03:34:11;;;;;;;13.57;9.43;;;24.30;51.30;;;;;;6199658;28;80861;-63
2022/11/05 03:37:11;;;;;;;13.25;9.27;;;24.30;51.30;;;;;;6195478;28;83008;-64
2022/11/05 03:40:12;;;;;;;12.07;8.95;;;24.30;51.30;;;;;;6196976;28;81798;-62
2022/11/05 03:43:12;;;;;;;13.48;8.73;;;24.30;51.10;;;;;;6196315;28;83289;-64
2022/11/05 03:46:13;;;;;;;11.38;8.27;;;24.30;51.10;;;;;;6197265;28;81476;-63
2022/11/05 03:49:13;;;;;;;11.82;7.35;;;24.30;51.00;;;;;;6200403;28;84033;-63
2022/11/05 03:52:14;;;;;;;8.73;6.18;;;24.30;51.10;;;;;;6195918;28;80660;-62
2022/11/05 03:55:14;;;;;;;11.82;6.68;;;24.30;51.10;;;;;;6198246;28;80564;-68
2022/11/05 03:58:15;;;;;;;8.80;6.20;;;24.20;51.20;;;;;;6187159;28;80434;-68
2022/11/05 04:01:16;;;;;;;7.32;5.32;;;24.30;51.10;;;;;;6196202;28;85544;-65
2022/11/05 04:04:16;;;;;;;7.43;5.32;;;24.30;51.00;;;;;;6200048;28;81224;-66
2022/11/05 04:13:55;;;;;;;6.35;4.63;;;24.30;51.00;;;;;;6196305;28;80638;-55
2022/11/05 04:17:05;;;;;;;5.47;3.65;;;24.30;51.00;;;;;;6185180;28;81419;-54
2022/11/05 04:26:44;;;;;;;5.40;3.85;;;24.30;50.80;;;;;;6178379;28;81007;-53
2022/11/05 04:33:03;;;;;;;5.63;4.07;;;24.30;50.80;;;;;;6176891;28;80404;-53
2022/11/05 04:36:04;;;;;;;3.85;3.28;;;24.30;50.80;;;;;;6178061;28;85198;-57
2022/11/05 04:39:04;;;;;;;4.45;3.60;;;24.20;50.70;;;;;;6174344;28;80900;-57
2022/11/05 04:42:05;;;;;;;3.28;2.90;;;24.20;50.70;;;;;;6180015;28;84120;-60
2022/11/05 04:45:05;;;;;;;8.80;3.25;;;24.30;50.90;;;;;;6176530;28;80075;-58
2022/11/05 04:48:07;;;;;;;3.58;2.90;;;24.30;50.80;;;;;;6170884;28;81018;-56
2022/11/05 04:51:07;;;;;;;4.70;3.38;;;24.30;50.80;;;;;;6177161;28;86850;-53
2022/11/05 04:54:08;;;;;;;5.63;3.05;;;24.30;50.70;;;;;;6174401;28;81160;-58
2022/11/05 04:57:08;;;;;;;4.30;2.80;;;24.30;50.70;;;;;;6197430;28;84617;-57
2022/11/05 05:00:09;;;;;;;4.95;2.90;;;24.20;50.70;;;;;;6174919;28;81104;-52
2022/11/05 05:03:10;;;;;;;3.05;2.65;;;24.30;50.80;;;;;;6175862;28;86074;-58
2022/11/05 05:06:10;;;;;;;3.55;2.90;;;24.20;50.80;;;;;;6179075;28;80460;-56
2022/11/05 05:09:11;;;;;;;3.55;2.60;;;24.20;50.70;;;;;;6200998;28;80860;-63
2022/11/05 05:12:11;;;;;;;3.00;2.60;;;24.30;50.80;;;;;;6175996;28;83142;-66
2022/11/05 05:15:12;;;;;;;2.97;2.42;;;24.30;50.80;;;;;;6173959;28;80694;-64
2022/11/05 05:18:12;;;;;;;3.20;2.30;;;24.30;50.80;;;;;;6175568;28;80633;-64
2022/11/05 05:24:33;;;;;;;3.25;2.15;;;24.30;50.70;;;;;;6170207;28;84941;-66
2022/11/05 05:27:33;;;;;;;1.85;1.75;;;24.20;50.60;;;;;;6164845;28;80943;-65
2022/11/05 05:30:34;;;;;;;3.80;2.00;;;24.30;50.70;;;;;;6197201;28;83761;-67
2022/11/05 05:33:34;;;;;;;2.38;1.63;;;24.20;50.80;;;;;;6184412;28;80568;-65
2022/11/05 05:36:35;;;;;;;4.50;2.00;;;24.20;51.30;;;;;;6177794;28;80779;-65
2022/11/05 05:39:35;;;;;;;3.08;2.10;;;24.30;51.50;;;;;;6181096;28;81328;-66
2022/11/05 05:42:36;;;;;;;4.20;1.75;;;24.30;51.40;;;;;;6184469;28;80826;-64
2022/11/05 05:45:36;;;;;;;2.25;1.70;;;24.30;51.60;;;;;;6176267;28;83329;-57
2022/11/05 05:48:37;;;;;;;2.28;2.08;;;24.30;51.50;;;;;;6172034;28;80815;-57
2022/11/05 05:51:37;;;;;;;4.50;1.63;;;24.30;51.80;;;;;;6185875;28;80563;-57
2022/11/05 05:54:38;;;;;;;11.50;2.05;;;24.30;51.80;;;;;;6174936;28;89515;-54
2022/11/05 05:57:38;;;;;;;15.60;1.95;;;24.30;51.80;;;;;;6178909;28;80989;-57
2022/11/05 06:00:39;;;;;;;4.07;2.08;;;24.30;51.90;;;;;;6188689;28;81375;-61
2022/11/05 06:03:39;;;;;;;5.95;1.80;;;24.20;51.70;;;;;;6179421;28;81894;-60
2022/11/05 06:06:40;;;;;;;8.63;2.17;;;24.20;51.50;;;;;;6210462;28;84109;-54
2022/11/05 06:09:40;;;;;;;3.72;1.48;;;24.20;51.60;;;;;;6177378;28;80616;-57
2022/11/05 06:12:41;;;;;;;6.07;1.23;;;24.20;51.80;;;;;;6196818;28;80522;-57
2022/11/05 06:15:41;;;;;;;8.68;1.75;;;24.20;52.60;;;;;;6199984;28;80251;-57
2022/11/05 06:18:42;;;;;;;3.13;1.52;;;24.20;52.70;;;;;;6199104;28;80954;-56
2022/11/05 06:21:43;;;;;;;13.32;1.67;;;24.20;52.20;;;;;;6200584;28;80600;-56
2022/11/05 06:24:43;;;;;;;2.00;1.40;;;24.30;52.20;;;;;;6198218;28;81656;-64
2022/11/05 06:27:44;;;;;;;5.95;1.80;;;24.20;52.20;;;;;;6186643;28;80587;-65
2022/11/05 06:30:44;;;;;;;11.93;2.63;;;24.20;52.70;;;;;;6199386;28;80485;-66
2022/11/05 06:33:46;;;;;;;3.05;1.83;;;24.30;53.40;;;;;;6200990;28;80969;-64
2022/11/05 06:36:46;;;;;;;1.77;1.55;;;24.20;52.70;;;;;;6180035;28;87458;-63
2022/11/05 06:39:47;;;;;;;5.40;1.40;;;24.20;53.40;;;;;;6189998;28;80622;-65
2022/11/05 06:42:47;;;;;;;9.27;1.45;;;24.20;54.10;;;;;;6195644;28;80351;-66
2022/11/05 06:45:48;;;;;;;2.40;1.40;;;24.20;54.60;;;;;;6197507;28;80961;-62
2022/11/05 06:48:49;;;;;;;2.13;1.70;;;24.20;55.30;;;;;;6193707;28;82983;-62
2022/11/05 06:51:50;;;;;;;5.90;1.40;;;24.20;55.30;;;;;;6192101;28;81903;-64
2022/11/05 06:54:50;;;;;;;1.27;1.17;;;24.20;56.00;;;;;;6197294;28;81039;-63
2022/11/05 06:57:51;;;;;;;3.78;1.08;;;24.20;56.80;;;;;;6191848;28;83732;-65
2022/11/05 07:00:52;;;;;;;5.60;1.50;;;24.20;57.00;;;;;;6200419;28;80415;-63
2022/11/05 07:03:52;;;;;;;2.05;1.20;;;24.10;57.30;;;;;;6194578;28;84897;-63
2022/11/05 07:06:52;;;;;;;1.95;1.10;;;24.10;57.70;;;;;;6192693;28;80613;-67
2022/11/05 07:09:53;;;;;;;0.98;0.90;;;24.20;58.10;;;;;;6195076;28;83413;-64
2022/11/05 07:12:54;;;;;;;1.15;0.85;;;24.20;58.40;;;;;;6187286;28;80618;-63
2022/11/05 07:15:54;;;;;;;1.50;1.10;;;24.20;58.40;;;;;;6167732;28;81114;-66
2022/11/05 07:18:55;;;;;;;3.25;0.98;;;24.20;58.30;;;;;;6169542;28;81740;-66
2022/11/05 07:21:55;;;;;;;1.92;0.90;;;24.20;58.30;;;;;;6184538;28;81561;-62
2022/11/05 07:24:56;;;;;;;1.70;0.98;;;24.10;58.20;;;;;;6176782;28;80744;-62
2022/11/05 07:27:56;;;;;;;2.17;1.00;;;24.20;58.60;;;;;;6168658;28;80945;-61
2022/11/05 07:30:57;;;;;;;4.10;1.00;;;24.10;58.80;;;;;;6169334;28;80605;-59
2022/11/05 07:33:58;;;;;;;2.50;0.90;;;24.20;59.30;;;;;;6167101;28;80850;-61
2022/11/05 07:36:58;;;;;;;0.77;0.77;;;24.20;59.30;;;;;;6167114;28;80403;-56
2022/11/05 07:39:59;;;;;;;1.15;0.93;;;24.20;59.40;;;;;;6171429;28;82480;-56
2022/11/05 07:42:59;;;;;;;9.63;1.48;;;24.20;59.20;;;;;;6170880;28;80171;-60
2022/11/05 07:46:00;;;;;;;1.40;1.20;;;24.20;59.30;;;;;;6173280;28;80659;-57
2022/11/05 07:49:00;;;;;;;2.78;1.30;;;24.20;59.20;;;;;;6178164;28;80983;-57
2022/11/05 07:52:01;;;;;;;1.63;1.20;;;24.20;59.40;;;;;;6173372;28;81502;-58
2022/11/05 07:55:01;;;;;;;4.38;1.48;;;24.20;59.60;;;;;;6158477;28;83239;-59
2022/11/05 07:58:02;;;;;;;3.75;1.23;;;24.20;60.10;;;;;;6172257;28;85092;-59
2022/11/05 08:01:02;;;;;;;4.32;1.40;;;24.20;59.70;;;;;;6171910;28;80379;-59
2022/11/05 08:04:03;;;;;;;3.85;1.55;;;24.20;60.10;;;;;;6170483;28;81063;-57
2022/11/05 08:07:03;;;;;;;6.07;1.35;;;24.20;59.80;;;;;;6171490;28;80683;-58
2022/11/05 08:10:04;;;;;;;8.75;1.10;;;24.20;59.20;;;;;;6169427;28;80399;-56
2022/11/05 08:13:04;;;;;;;7.07;1.40;;;24.30;59.10;;;;;;6158976;28;81548;-62
2022/11/05 08:16:05;;;;;;;1.77;1.45;;;24.30;58.60;;;;;;6160685;28;81237;-62
2022/11/05 08:19:05;;;;;;;2.95;1.40;;;24.30;58.40;;;;;;6173353;28;80883;-63
2022/11/05 08:22:06;;;;;;;3.08;1.25;;;24.30;58.60;;;;;;6173736;28;81084;-66
2022/11/05 08:25:07;;;;;;;4.68;1.40;;;24.30;58.50;;;;;;6186278;28;80851;-64
2022/11/05 08:28:07;;;;;;;1.85;1.20;;;24.20;58.60;;;;;;6188834;28;81508;-64
2022/11/05 08:31:08;;;;;;;2.15;1.20;;;24.20;58.80;;;;;;6173839;28;81862;-64
2022/11/05 08:34:08;;;;;;;3.97;1.40;;;24.20;58.50;;;;;;6158357;28;82225;-68
2022/11/05 08:37:09;;;;;;;2.47;1.38;;;24.20;58.40;;;;;;6183215;28;80908;-75
2022/11/05 08:40:09;;;;;;;2.17;1.00;;;24.10;57.90;;;;;;6184994;28;80883;-74
2022/11/05 08:43:10;;;;;;;5.85;1.50;;;24.10;58.20;;;;;;6196816;28;81705;-68
2022/11/05 08:46:10;;;;;;;10.38;1.48;;;24.10;57.80;;;;;;6179524;28;80393;-72
2022/11/05 08:49:11;;;;;;;5.53;1.63;;;24.10;57.40;;;;;;6180291;28;81173;-61
2022/11/05 08:52:11;;;;;;;2.88;1.50;;;24.10;56.30;;;;;;6185236;28;80702;-64
2022/11/05 08:55:12;;;;;;;5.80;1.40;;;24.10;55.90;;;;;;6169464;28;81397;-67
2022/11/05 08:58:14;;;;;;;14.73;3.08;;;24.10;55.90;;;;;;6167475;28;80955;-63
2022/11/05 09:01:14;;;;;;;15.15;2.70;;;24.10;55.40;;;;;;6178618;28;80899;-62
2022/11/05 09:04:15;;;;;;;20.40;3.88;;;24.10;54.90;;;;;;6192878;28;80886;-69
2022/11/05 09:07:15;;;;;;;17.65;3.17;;;24.10;54.80;;;;;;6175792;28;83344;-64
2022/11/05 09:10:16;;;;;;;8.15;2.58;;;24.10;54.70;;;;;;6174352;28;81309;-63
2022/11/05 09:13:16;;;;;;;12.82;2.67;;;24.10;54.40;;;;;;6185267;28;81040;-64
2022/11/05 09:16:17;;;;;;;10.68;2.60;;;24.10;54.10;;;;;;6167943;28;80416;-62
2022/11/05 09:19:17;;;;;;;5.07;2.58;;;24.10;53.80;;;;;;6177460;28;81320;-63
2022/11/05 09:22:18;;;;;;;8.48;1.90;;;24.10;54.00;;;;;;6174452;28;80522;-62
2022/11/05 09:25:19;;;;;;;11.73;2.47;;;24.10;53.40;;;;;;6164672;28;84859;-66
2022/11/05 09:28:20;;;;;;;6.25;2.47;;;24.00;53.20;;;;;;6183311;28;80733;-61
2022/11/05 09:31:20;;;;;;;8.48;2.47;;;24.00;53.10;;;;;;6180691;28;80901;-62
2022/11/05 09:34:21;;;;;;;5.80;2.00;;;24.00;52.90;;;;;;6183676;28;81109;-62
2022/11/05 09:37:21;;;;;;;5.03;2.05;;;24.00;52.70;;;;;;6190932;28;80934;-62
2022/11/05 09:40:22;;;;;;;7.35;2.08;;;24.00;52.50;;;;;;6173436;28;81527;-63
2022/11/05 09:43:22;;;;;;;7.85;1.88;;;24.00;52.20;;;;;;6185473;28;80184;-63
2022/11/05 09:46:23;;;;;;;6.00;2.28;;;24.00;52.20;;;;;;6191734;28;80662;-64
2022/11/05 09:49:24;;;;;;;2.53;1.80;;;24.10;52.20;;;;;;6174363;28;80676;-62
2022/11/05 09:52:24;;;;;;;3.42;1.98;;;24.10;52.10;;;;;;6175458;28;80808;-63
2022/11/05 09:55:25;;;;;;;3.53;1.75;;;24.10;52.00;;;;;;6176548;28;82264;-64
2022/11/05 09:58:25;;;;;;;9.20;2.22;;;24.10;52.00;;;;;;6166513;28;81535;-62
2022/11/05 10:01:26;;;;;;;2.78;2.25;;;24.10;52.00;;;;;;6175876;28;80583;-62
2022/11/05 10:04:26;;;;;;;4.53;1.98;;;24.10;51.60;;;;;;6177069;28;80637;-69
2022/11/05 10:07:27;;;;;;;4.82;2.20;;;24.10;51.90;;;;;;6184981;28;80654;-69
2022/11/05 10:10:27;;;;;;;5.90;1.92;;;24.10;51.70;;;;;;6191404;28;85565;-66
2022/11/05 10:13:28;;;;;;;5.57;2.42;;;24.10;51.60;;;;;;6175271;28;83601;-69
2022/11/05 10:16:29;;;;;;;8.30;2.40;;;24.10;51.60;;;;;;6173166;28;87194;-67
2022/11/05 10:19:30;;;;;;;4.65;2.10;;;24.10;52.20;;;;;;6197445;28;80618;-68
2022/11/05 10:22:30;;;;;;;6.78;2.38;;;24.10;51.70;;;;;;6190994;28;81390;-59
2022/11/05 10:25:31;;;;;;;4.15;2.45;;;24.10;51.80;;;;;;6176663;28;80599;-59
2022/11/05 10:28:33;;;;;;;4.15;2.30;;;24.10;52.20;;;;;;6174708;28;80076;-59
2022/11/05 10:31:33;;;;;;;6.07;2.40;;;24.10;52.70;;;;;;6184710;28;82822;-58
2022/11/05 10:34:34;;;;;;;3.63;2.40;;;24.10;53.80;;;;;;6176731;28;80371;-58
2022/11/05 10:37:34;;;;;;;6.03;2.20;;;24.10;53.30;;;;;;6185883;28;80923;-57
2022/11/05 10:40:35;;;;;;;5.38;2.28;;;24.10;53.10;;;;;;6188143;28;80566;-60
2022/11/05 10:43:35;;;;;;;2.92;2.28;;;24.10;53.10;;;;;;6175735;28;80602;-57
2022/11/05 10:46:36;;;;;;;6.07;2.42;;;24.10;53.10;;;;;;6197518;28;86902;-59
2022/11/05 10:49:36;;;;;;;4.10;2.35;;;24.10;52.90;;;;;;6187874;28;80470;-59
2022/11/05 10:52:37;;;;;;;6.20;2.03;;;24.10;52.60;;;;;;6171871;28;81737;-60
2022/11/05 10:55:37;;;;;;;3.90;2.15;;;24.10;52.30;;;;;;6176156;28;81039;-61
2022/11/05 10:58:40;;;;;;;5.82;2.40;;;24.00;52.00;;;;;;6173373;28;87561;-59
2022/11/05 11:01:41;;;;;;;4.88;2.25;;;24.00;51.90;;;;;;6171599;28;81018;-57
2022/11/05 11:04:41;;;;;;;3.13;2.17;;;24.00;51.90;;;;;;6180632;28;80959;-58
2022/11/05 11:07:42;;;;;;;3.38;2.22;;;24.10;52.20;;;;;;6189667;28;80649;-58
2022/11/05 11:10:42;;;;;;;5.45;2.25;;;24.10;52.10;;;;;;6177591;28;80851;-59
2022/11/05 11:13:43;;;;;;;4.45;2.40;;;24.10;52.10;;;;;;6172772;28;81139;-59
2022/11/05 11:16:43;;;;;;;6.57;2.53;;;24.10;52.30;;;;;;6180148;28;85967;-58
2022/11/05 11:19:44;;;;;;;3.95;2.75;;;24.10;52.30;;;;;;6173010;28;81572;-58
2022/11/05 11:22:44;;;;;;;4.78;2.22;;;24.10;52.20;;;;;;6177520;28;81212;-58
2022/11/05 11:25:46;;;;;;;6.38;3.00;;;24.10;52.20;;;;;;6172953;28;83689;-59
2022/11/05 11:28:47;;;;;;;4.28;2.40;;;24.10;51.90;;;;;;6175562;28;80410;-59
2022/11/05 11:31:47;;;;;;;11.65;2.88;;;24.00;51.70;;;;;;6176553;28;84292;-59
2022/11/05 11:34:48;;;;;;;7.85;2.38;;;24.00;51.70;;;;;;6183892;28;80590;-58
2022/11/05 11:37:48;;;;;;;3.60;2.33;;;24.00;51.60;;;;;;6199763;28;80498;-58
2022/11/05 11:40:49;;;;;;;3.28;2.30;;;24.00;51.60;;;;;;6189059;28;80608;-60
2022/11/05 11:43:49;;;;;;;4.55;2.40;;;24.00;51.70;;;;;;6180502;28;80856;-58
2022/11/05 11:46:50;;;;;;;3.97;2.33;;;24.00;51.70;;;;;;6187519;28;80484;-59
2022/11/05 11:49:50;;;;;;;7.05;3.20;;;24.00;51.50;;;;;;6178343;28;80906;-58
2022/11/05 11:52:51;;;;;;;3.88;2.35;;;23.90;51.30;;;;;;6177835;28;80996;-58
2022/11/05 11:55:51;;;;;;;4.25;2.17;;;24.00;51.30;;;;;;6185354;28;80906;-59
2022/11/05 11:58:52;;;;;;;7.28;2.40;;;24.00;51.40;;;;;;6172240;28;81079;-59
2022/11/05 12:01:52;;;;;;;6.68;2.95;;;24.00;51.50;;;;;;6170823;28;80839;-57
2022/11/05 12:04:53;;;;;;;7.88;2.97;;;24.00;51.70;;;;;;6169581;28;85612;-59
2022/11/05 12:07:54;;;;;;;6.07;3.10;;;24.00;51.70;;;;;;6171234;28;80992;-59
2022/11/05 12:10:54;;;;;;;4.25;2.78;;;24.00;51.70;;;;;;6172670;28;83819;-61
2022/11/05 12:13:55;;;;;;;7.68;2.47;;;24.00;51.60;;;;;;6170363;28;80516;-62
2022/11/05 12:16:55;;;;;;;8.10;3.63;;;24.00;51.40;;;;;;6174133;28;87345;-62
2022/11/05 12:19:56;;;;;;;5.60;3.40;;;24.00;51.40;;;;;;6170855;28;81028;-62
2022/11/05 12:22:56;;;;;;;6.72;3.28;;;24.00;51.20;;;;;;6169994;28;84297;-62
2022/11/05 12:25:57;;;;;;;5.15;3.20;;;24.00;51.40;;;;;;6171520;28;85836;-62
2022/11/05 12:28:58;;;;;;;8.05;3.88;;;24.10;51.20;;;;;;6168915;28;82066;-64
2022/11/05 12:31:58;;;;;;;6.05;3.13;;;24.00;51.40;;;;;;6154313;28;81763;-66
2022/11/05 12:34:59;;;;;;;8.23;3.63;;;24.00;51.50;;;;;;6160937;28;80406;-68
2022/11/05 12:37:59;;;;;;;7.88;3.58;;;24.10;51.60;;;;;;6170159;28;80812;-63
2022/11/05 12:41:00;;;;;;;15.05;3.88;;;24.10;51.60;;;;;;6180752;28;80347;-65
2022/11/05 12:44:00;;;;;;;8.68;4.03;;;24.10;52.30;;;;;;6182241;28;80537;-65
2022/11/05 12:47:01;;;;;;;8.23;3.67;;;24.10;51.80;;;;;;6178959;28;85200;-65
2022/11/05 12:50:01;;;;;;;5.43;4.03;;;24.10;52.00;;;;;;6158572;28;80480;-65
2022/11/05 12:53:02;;;;;;;6.47;4.00;;;24.10;52.10;;;;;;6170548;28;84768;-65
2022/11/05 12:56:03;;;;;;;4.72;3.25;;;24.10;52.20;;;;;;6172870;28;80890;-66
2022/11/05 12:59:04;;;;;;;5.55;3.90;;;24.10;52.20;;;;;;6161658;28;81533;-65
2022/11/05 13:02:04;;;;;;;7.70;4.03;;;24.10;52.30;;;;;;6177635;28;80775;-64
2022/11/05 13:05:05;;;;;;;5.97;3.85;;;24.10;52.10;;;;;;6169229;28;82068;-63
2022/11/05 13:08:06;;;;;;;9.48;4.55;;;24.10;52.20;;;;;;6159093;28;80961;-67
2022/11/05 13:11:06;;;;;;;17.77;5.35;;;24.10;52.30;;;;;;6157170;28;82252;-70
2022/11/05 13:14:07;;;;;;;14.57;5.15;;;24.10;52.60;;;;;;6167771;28;81024;-63
2022/11/05 13:17:07;;;;;;;11.05;5.43;;;24.20;53.00;;;;;;6177314;28;80606;-65
2022/11/05 13:20:08;;;;;;;15.77;5.38;;;24.10;53.20;;;;;;6175991;28;84721;-64
2022/11/05 13:23:08;;;;;;;21.60;7.45;;;24.10;53.60;;;;;;6170715;28;81147;-63
2022/11/05 13:26:09;;;;;;;16.98;6.63;;;24.20;53.70;;;;;;6186211;28;80317;-62
2022/11/05 13:29:09;;;;;;;19.50;6.47;;;24.20;53.80;;;;;;6155966;28;82176;-60
2022/11/05 13:32:10;;;;;;;20.90;7.28;;;24.20;53.90;;;;;;6166582;28;80758;-65
2022/11/05 13:35:11;;;;;;;16.92;6.55;;;24.20;54.00;;;;;;6172113;28;84841;-61
2022/11/05 13:41:31;;;;;;;21.98;7.25;;;24.20;54.30;;;;;;6170102;28;80844;-62
2022/11/05 13:44:31;;;;;;;15.93;6.32;;;24.30;54.00;;;;;;6164877;28;84784;-67
2022/11/05 13:47:32;;;;;;;22.38;7.07;;;24.30;53.90;;;;;;6170646;28;81405;-69
2022/11/05 13:50:32;;;;;;;13.38;5.43;;;24.30;53.60;;;;;;6163558;28;84934;-69
2022/11/05 13:53:33;;;;;;;14.43;5.93;;;24.30;53.50;;;;;;6173268;28;81872;-67
2022/11/05 13:56:33;;;;;;;10.90;5.15;;;24.30;53.10;;;;;;6183459;28;83428;-69
2022/11/05 13:59:34;;;;;;;8.48;5.07;;;24.30;53.60;;;;;;6167116;28;82747;-68
2022/11/05 14:02:34;;;;;;;11.43;5.50;;;24.20;53.40;;;;;;6176391;28;80231;-60
2022/11/05 14:05:35;;;;;;;12.07;5.85;;;24.20;53.50;;;;;;6162343;28;80495;-59
2022/11/05 14:08:35;;;;;;;13.77;5.05;;;24.30;53.00;;;;;;6169055;28;81318;-61
2022/11/05 14:11:36;;;;;;;9.43;4.80;;;24.20;52.90;;;;;;6170147;28;83470;-61
2022/11/05 14:14:36;;;;;;;11.27;5.45;;;24.20;53.00;;;;;;6169133;28;81871;-62
2022/11/05 14:17:37;;;;;;;7.68;4.60;;;24.20;52.60;;;;;;6177400;28;82932;-60
2022/11/05 14:20:38;;;;;;;13.73;4.82;;;24.30;52.80;;;;;;6153341;28;84418;-62
2022/11/05 14:23:38;;;;;;;11.15;5.70;;;24.30;53.00;;;;;;6158723;28;87579;-66
2022/11/05 14:26:39;;;;;;;12.30;5.32;;;24.30;53.10;;;;;;6178944;28;80985;-61
2022/11/05 14:29:39;;;;;;;10.45;4.97;;;24.20;53.00;;;;;;6168549;28;80538;-66
2022/11/05 14:32:40;;;;;;;12.25;6.03;;;24.20;52.90;;;;;;6160338;28;80564;-62
2022/11/05 14:35:40;;;;;;;10.35;5.25;;;24.20;53.20;;;;;;6160369;28;81236;-62
2022/11/05 14:38:41;;;;;;;9.50;5.00;;;24.20;53.00;;;;;;6158621;28;80547;-63
2022/11/05 14:41:41;;;;;;;11.15;5.25;;;24.30;52.90;;;;;;6160051;28;80274;-62
2022/11/05 14:44:42;;;;;;;8.80;5.68;;;24.20;52.90;;;;;;6168605;28;81342;-60
2022/11/05 14:47:42;;;;;;;7.75;5.60;;;24.20;53.00;;;;;;6161514;28;83384;-62
2022/11/05 14:50:43;;;;;;;11.00;5.07;;;24.30;53.20;;;;;;6166402;28;81407;-60
2022/11/05 14:53:44;;;;;;;9.85;5.25;;;24.30;53.00;;;;;;6168459;28;83057;-59
2022/11/05 14:56:44;;;;;;;19.58;5.65;;;24.30;53.00;;;;;;6169962;28;80524;-63
2022/11/05 14:59:45;;;;;;;16.98;5.50;;;24.30;52.60;;;;;;6172536;28;87280;-64
2022/11/05 15:02:45;;;;;;;17.38;5.35;;;24.30;52.50;;;;;;6159200;28;83994;-64
2022/11/05 15:05:46;;;;;;;16.20;5.53;;;24.30;52.40;;;;;;6161789;28;80386;-63
2022/11/05 15:08:46;;;;;;;10.23;5.40;;;24.30;52.40;;;;;;6161618;28;80840;-64
2022/11/05 15:11:47;;;;;;;9.23;5.13;;;24.30;52.10;;;;;;6163273;28;80658;-65
2022/11/05 15:14:47;;;;;;;11.32;5.32;;;24.30;52.00;;;;;;6169662;28;87002;-77
2022/11/05 15:17:50;;;;;;;9.02;5.63;;;24.30;51.90;;;;;;6199120;28;80165;-68
2022/11/05 15:20:50;;;;;;;9.02;5.05;;;24.30;51.80;;;;;;6198323;28;82448;-71
2022/11/05 15:23:51;;;;;;;7.18;5.40;;;24.30;51.90;;;;;;6197304;28;80434;-70
2022/11/05 15:26:51;;;;;;;11.00;5.75;;;24.30;52.20;;;;;;6199806;28;86716;-64
2022/11/05 15:29:52;;;;;;;10.95;5.80;;;24.30;52.40;;;;;;6200429;28;81462;-65
2022/11/05 15:32:52;;;;;;;8.85;5.32;;;24.30;52.10;;;;;;6197743;28;80433;-65
2022/11/05 15:35:53;;;;;;;12.95;4.97;;;24.30;52.30;;;;;;6198800;28;80469;-66
2022/11/05 15:38:53;;;;;;;8.45;4.80;;;24.30;52.30;;;;;;6198603;28;81165;-69
2022/11/05 15:41:54;;;;;;;8.25;4.90;;;24.40;52.40;;;;;;6198411;28;80487;-70
2022/11/05 15:44:55;;;;;;;10.05;5.20;;;24.40;52.80;;;;;;6192122;28;80614;-67
2022/11/05 15:47:55;;;;;;;14.00;5.43;;;24.40;52.50;;;;;;6193637;28;80716;-65
2022/11/05 15:50:56;;;;;;;7.38;5.03;;;24.30;52.60;;;;;;6199114;28;84460;-67
2022/11/05 15:53:56;;;;;;;11.57;5.95;;;24.30;52.40;;;;;;6192381;28;83201;-67
2022/11/05 15:56:57;;;;;;;15.68;5.28;;;24.30;52.80;;;;;;6179299;28;80564;-62
2022/11/05 15:59:57;;;;;;;12.95;5.53;;;24.30;52.90;;;;;;6185515;28;81420;-62
2022/11/05 16:02:58;;;;;;;13.18;5.90;;;24.40;53.10;;;;;;6189198;28;82294;-67
2022/11/05 16:05:58;;;;;;;14.18;5.70;;;24.40;53.00;;;;;;6180602;28;83261;-64
2022/11/05 16:08:59;;;;;;;12.55;5.50;;;24.30;52.60;;;;;;6180413;28;80589;-65
2022/11/05 16:11:59;;;;;;;22.80;5.50;;;24.30;52.50;;;;;;6182198;28;80500;-64